Lenore, West Virginia
Current Conditions -  °F | °C
As of 8:15 PM on Saturday 25 Oct 2014 (Local Time) from KSJS Reporting Station
Clear Clear  
Wind Chill: 62°   Ceiling: Unl
Heat Index: 62°   Visibility: 10mi
Dew Point: 53°   Wind: 5mph
Humidity: 73%   Direction: 250°WSW
Pressure: 29.97"   Gusts: NA
Location:  37.8°N, 82.29°W
Report Text: KSJS 260015Z AUTO 25004KT 10SM CLR 17/12 A2997 RMK AO2 T01660117
Loading
Personal Weather Stations






























Interactive Weather Map
Tropical Storm Tracking
New forecast layout! Learn more

10-Day Weather Forecast

Advertisements
Track Severe Weather on mobile